Aérodrome :
LOGIN :

S'inscrire | Disclaimer

   EN    FR    IT 

 










Légende :    VFR   VFR Marginal   IFR   IFR Intensif   IFR Très Intensif
Visi : 
Plafond : 
>= 8 km
>= 3000ft
5 à 8 km
1000 à 3000 ft
1500m à 5 km
500 à 1000 ft
800 à 1500m
200 à 500 ft
< 800m
< 200 ft
Symboles :   Orages  Brouillard  Fortes neiges  Fortes précipitations  Vent > 20 kt
SIGMETs :   Divers  Orages  Givrage  Turbulence  Onde Orograph.  Cendres Volcan.






- Altitude de l'aérodrome : 15 ft
- Code IATA : GIB


LXGB - Gibraltar

DERNIER METAR :
  • 151450Z 28008KT 9999 FEW030 BKN250 18/11 Q1014 NOSIG RMK BLU BLU

METARs EXPIRÉS :
  • 151420Z 28010KT 9999 FEW030 BKN250 18/11 Q1014 NOSIG RMK BLU BLU
  • 151350Z 28010KT 9999 FEW030 BKN250 17/10 Q1014 NOSIG RMK BLU BLU
  • 151320Z 27011KT 9999 FEW030 BKN300 17/10 Q1015 NOSIG RMK BLU BLU
  • 151250Z 27011KT 9999 FEW030 BKN300 17/11 Q1016 NOSIG RMK BLU BLU
  • 151225Z 27011KT CAVOK 17/10 Q1016 NOSIG RMK BLU BLU
  • 151150Z 27010KT 9999 FEW030 BKN300 17/10 Q1017 NOSIG RMK BLU BLU

TAF TAF LXGB
Valide du 15 à 15h jusqu'au 15 à 23h UTC


151331Z 1515/1523 26010KT 9999 SCT025
PROB30
TEMPO 1515/1518 20013KT 520002



MET'MAP, la Météo Aéronautique d'un coup d'oeil ! - Copyright ORBIFLY Décembre 2007 - Disclaimer

ORBIFLY MET'MAP TEAM :

Programmation & Développement : Alexandra Zaïnal
Sur une idée originale de : Baudouin d'Aumeries
Assistance à la programmation : Marc-Olivier Méhu
Soutien technique & logistique : Manuel Goepfert

Contact : metmap@orbifly.com




SOURCES & CREDITS :

   NOAA